sensor_id;sensor_type;location;lat;lon;timestamp;temperature;humidity
47022;DHT22;32779;52.264;6.154;2023-10-09T00:00:13;13.00;99.90
47022;DHT22;32779;52.264;6.154;2023-10-09T00:02:58;13.00;99.90
47022;DHT22;32779;52.264;6.154;2023-10-09T00:05:35;13.00;99.90
47022;DHT22;32779;52.264;6.154;2023-10-09T00:08:14;13.00;99.90
47022;DHT22;32779;52.264;6.154;2023-10-09T00:10:56;13.00;99.90
47022;DHT22;32779;52.264;6.154;2023-10-09T00:13:23;13.00;99.90
47022;DHT22;32779;52.264;6.154;2023-10-09T00:15:58;13.00;99.90
47022;DHT22;32779;52.264;6.154;2023-10-09T00:18:34;13.00;99.90
47022;DHT22;32779;52.264;6.154;2023-10-09T00:21:01;13.00;99.90
47022;DHT22;32779;52.264;6.154;2023-10-09T00:23:38;13.00;99.90
47022;DHT22;32779;52.264;6.154;2023-10-09T00:26:08;13.00;99.90
47022;DHT22;32779;52.264;6.154;2023-10-09T00:28:38;13.10;99.90
47022;DHT22;32779;52.264;6.154;2023-10-09T00:31:10;13.10;99.90
47022;DHT22;32779;52.264;6.154;2023-10-09T00:33:41;13.10;99.90
47022;DHT22;32779;52.264;6.154;2023-10-09T00:36:07;13.20;99.90
47022;DHT22;32779;52.264;6.154;2023-10-09T00:38:39;13.20;99.90
47022;DHT22;32779;52.264;6.154;2023-10-09T00:41:15;13.20;99.90
47022;DHT22;32779;52.264;6.154;2023-10-09T00:43:51;13.20;99.90
47022;DHT22;32779;52.264;6.154;2023-10-09T00:46:21;13.30;99.90
47022;DHT22;32779;52.264;6.154;2023-10-09T00:48:56;13.30;99.90
47022;DHT22;32779;52.264;6.154;2023-10-09T00:51:24;13.30;99.90
47022;DHT22;32779;52.264;6.154;2023-10-09T00:53:55;13.30;99.90
47022;DHT22;32779;52.264;6.154;2023-10-09T00:56:24;13.40;99.90
47022;DHT22;32779;52.264;6.154;2023-10-09T00:58:57;13.40;99.90
47022;DHT22;32779;52.264;6.154;2023-10-09T01:01:40;13.40;99.90
47022;DHT22;32779;52.264;6.154;2023-10-09T01:04:07;13.40;99.90
47022;DHT22;32779;52.264;6.154;2023-10-09T01:06:51;13.40;99.90
47022;DHT22;32779;52.264;6.154;2023-10-09T01:09:41;13.50;99.90
47022;DHT22;32779;52.264;6.154;2023-10-09T01:12:10;13.50;99.90
47022;DHT22;32779;52.264;6.154;2023-10-09T01:14:45;13.50;99.90
47022;DHT22;32779;52.264;6.154;2023-10-09T01:17:18;13.50;99.90
47022;DHT22;32779;52.264;6.154;2023-10-09T01:19:56;13.50;99.90
47022;DHT22;32779;52.264;6.154;2023-10-09T01:22:46;13.50;99.90
47022;DHT22;32779;52.264;6.154;2023-10-09T01:25:16;13.60;99.90
47022;DHT22;32779;52.264;6.154;2023-10-09T01:28:08;13.60;99.90
47022;DHT22;32779;52.264;6.154;2023-10-09T01:30:34;13.70;99.90
47022;DHT22;32779;52.264;6.154;2023-10-09T01:33:07;13.70;99.90
47022;DHT22;32779;52.264;6.154;2023-10-09T01:35:38;13.70;99.90
47022;DHT22;32779;52.264;6.154;2023-10-09T01:38:20;13.70;99.90
47022;DHT22;32779;52.264;6.154;2023-10-09T01:40:55;13.80;99.90
47022;DHT22;32779;52.264;6.154;2023-10-09T01:43:28;13.80;99.90
47022;DHT22;32779;52.264;6.154;2023-10-09T01:45:54;13.90;99.90
47022;DHT22;32779;52.264;6.154;2023-10-09T01:48:26;13.90;99.90
47022;DHT22;32779;52.264;6.154;2023-10-09T01:50:55;13.90;99.90
47022;DHT22;32779;52.264;6.154;2023-10-09T01:53:25;13.90;99.90
47022;DHT22;32779;52.264;6.154;2023-10-09T01:55:55;13.90;99.90
47022;DHT22;32779;52.264;6.154;2023-10-09T01:58:41;14.00;99.90
47022;DHT22;32779;52.264;6.154;2023-10-09T02:01:07;14.00;99.90
47022;DHT22;32779;52.264;6.154;2023-10-09T02:03:34;14.00;99.90
47022;DHT22;32779;52.264;6.154;2023-10-09T02:06:07;14.10;99.90
47022;DHT22;32779;52.264;6.154;2023-10-09T02:08:51;14.10;99.90
47022;DHT22;32779;52.264;6.154;2023-10-09T02:11:22;14.10;99.90
47022;DHT22;32779;52.264;6.154;2023-10-09T02:14:09;14.10;99.90
47022;DHT22;32779;52.264;6.154;2023-10-09T02:16:47;14.20;99.90
47022;DHT22;32779;52.264;6.154;2023-10-09T02:19:31;14.20;99.90
47022;DHT22;32779;52.264;6.154;2023-10-09T02:22:02;14.30;99.90
47022;DHT22;32779;52.264;6.154;2023-10-09T02:24:47;14.30;99.90
47022;DHT22;32779;52.264;6.154;2023-10-09T02:27:18;14.40;99.90
47022;DHT22;32779;52.264;6.154;2023-10-09T02:30:11;14.40;99.90
47022;DHT22;32779;52.264;6.154;2023-10-09T02:32:55;14.40;99.90
47022;DHT22;32779;52.264;6.154;2023-10-09T02:35:32;14.50;99.90
47022;DHT22;32779;52.264;6.154;2023-10-09T02:38:02;14.50;99.90
47022;DHT22;32779;52.264;6.154;2023-10-09T02:40:37;14.50;99.90
47022;DHT22;32779;52.264;6.154;2023-10-09T02:43:13;14.50;99.90
47022;DHT22;32779;52.264;6.154;2023-10-09T02:45:44;14.60;99.90
47022;DHT22;32779;52.264;6.154;2023-10-09T02:48:18;14.60;99.90
47022;DHT22;32779;52.264;6.154;2023-10-09T02:51:19;14.60;99.90
47022;DHT22;32779;52.264;6.154;2023-10-09T02:54:02;14.60;99.90
47022;DHT22;32779;52.264;6.154;2023-10-09T02:56:51;14.60;99.90
47022;DHT22;32779;52.264;6.154;2023-10-09T02:59:41;14.70;99.90
47022;DHT22;32779;52.264;6.154;2023-10-09T03:02:10;14.80;99.90
47022;DHT22;32779;52.264;6.154;2023-10-09T03:04:39;14.80;99.90
47022;DHT22;32779;52.264;6.154;2023-10-09T03:07:07;14.80;99.90
47022;DHT22;32779;52.264;6.154;2023-10-09T03:09:33;14.90;99.90
47022;DHT22;32779;52.264;6.154;2023-10-09T03:12:02;14.90;99.90
47022;DHT22;32779;52.264;6.154;2023-10-09T03:14:29;15.00;99.90
47022;DHT22;32779;52.264;6.154;2023-10-09T03:17:01;15.10;99.90
47022;DHT22;32779;52.264;6.154;2023-10-09T03:19:31;15.10;99.90
47022;DHT22;32779;52.264;6.154;2023-10-09T03:22:06;15.10;99.90
47022;DHT22;32779;52.264;6.154;2023-10-09T03:24:39;15.10;99.90
47022;DHT22;32779;52.264;6.154;2023-10-09T03:27:08;15.10;99.90
47022;DHT22;32779;52.264;6.154;2023-10-09T03:29:34;15.10;99.90
47022;DHT22;32779;52.264;6.154;2023-10-09T03:32:09;15.10;99.90
47022;DHT22;32779;52.264;6.154;2023-10-09T03:34:51;15.10;99.90
47022;DHT22;32779;52.264;6.154;2023-10-09T03:37:17;15.10;99.90
47022;DHT22;32779;52.264;6.154;2023-10-09T03:40:14;15.20;99.90
47022;DHT22;32779;52.264;6.154;2023-10-09T03:43:04;15.10;99.90
47022;DHT22;32779;52.264;6.154;2023-10-09T03:45:30;15.10;99.90
47022;DHT22;32779;52.264;6.154;2023-10-09T03:48:07;15.10;99.90
47022;DHT22;32779;52.264;6.154;2023-10-09T03:50:35;15.10;99.90
47022;DHT22;32779;52.264;6.154;2023-10-09T03:53:02;15.10;99.90
47022;DHT22;32779;52.264;6.154;2023-10-09T03:55:32;15.10;99.90
47022;DHT22;32779;52.264;6.154;2023-10-09T03:58:07;15.10;99.90
47022;DHT22;32779;52.264;6.154;2023-10-09T04:00:34;15.10;99.90
47022;DHT22;32779;52.264;6.154;2023-10-09T04:03:12;15.10;99.90
47022;DHT22;32779;52.264;6.154;2023-10-09T04:05:39;15.20;99.90
47022;DHT22;32779;52.264;6.154;2023-10-09T04:08:12;15.20;99.90
47022;DHT22;32779;52.264;6.154;2023-10-09T04:10:42;15.30;99.90
47022;DHT22;32779;52.264;6.154;2023-10-09T04:13:19;15.30;99.90
47022;DHT22;32779;52.264;6.154;2023-10-09T04:15:54;15.20;99.90
47022;DHT22;32779;52.264;6.154;2023-10-09T04:18:36;15.30;99.90
47022;DHT22;32779;52.264;6.154;2023-10-09T04:21:05;15.30;99.90
47022;DHT22;32779;52.264;6.154;2023-10-09T04:23:44;15.30;99.90
47022;DHT22;32779;52.264;6.154;2023-10-09T04:26:25;15.30;99.90
47022;DHT22;32779;52.264;6.154;2023-10-09T04:28:51;15.30;99.90
47022;DHT22;32779;52.264;6.154;2023-10-09T04:31:21;15.30;99.90
47022;DHT22;32779;52.264;6.154;2023-10-09T04:34:00;15.30;99.90
47022;DHT22;32779;52.264;6.154;2023-10-09T04:36:44;15.30;99.90
47022;DHT22;32779;52.264;6.154;2023-10-09T04:39:15;15.30;99.90
47022;DHT22;32779;52.264;6.154;2023-10-09T04:41:42;15.30;99.90
47022;DHT22;32779;52.264;6.154;2023-10-09T04:44:07;15.40;99.90
47022;DHT22;32779;52.264;6.154;2023-10-09T04:46:53;15.50;99.90
47022;DHT22;32779;52.264;6.154;2023-10-09T04:49:35;15.50;99.90
47022;DHT22;32779;52.264;6.154;2023-10-09T04:52:23;15.50;99.90
47022;DHT22;32779;52.264;6.154;2023-10-09T04:55:03;15.60;99.90
47022;DHT22;32779;52.264;6.154;2023-10-09T04:57:53;15.60;99.90
47022;DHT22;32779;52.264;6.154;2023-10-09T05:00:47;15.70;99.90
47022;DHT22;32779;52.264;6.154;2023-10-09T05:03:27;15.70;99.90
47022;DHT22;32779;52.264;6.154;2023-10-09T05:06:04;15.70;99.90
47022;DHT22;32779;52.264;6.154;2023-10-09T05:08:47;15.80;99.90
47022;DHT22;32779;52.264;6.154;2023-10-09T05:11:13;15.80;99.90
47022;DHT22;32779;52.264;6.154;2023-10-09T05:14:00;15.80;99.90
47022;DHT22;32779;52.264;6.154;2023-10-09T05:16:43;15.80;99.90
47022;DHT22;32779;52.264;6.154;2023-10-09T05:20:07;15.90;99.90
47022;DHT22;32779;52.264;6.154;2023-10-09T05:22:51;15.80;99.90
47022;DHT22;32779;52.264;6.154;2023-10-09T05:25:27;15.90;99.90
47022;DHT22;32779;52.264;6.154;2023-10-09T05:28:28;15.80;99.90
47022;DHT22;32779;52.264;6.154;2023-10-09T05:31:00;15.90;99.90
47022;DHT22;32779;52.264;6.154;2023-10-09T05:33:35;15.90;99.90
47022;DHT22;32779;52.264;6.154;2023-10-09T05:36:08;15.80;99.90
47022;DHT22;32779;52.264;6.154;2023-10-09T05:38:57;15.80;99.90
47022;DHT22;32779;52.264;6.154;2023-10-09T05:41:42;15.80;99.90
47022;DHT22;32779;52.264;6.154;2023-10-09T05:44:15;15.90;99.90
47022;DHT22;32779;52.264;6.154;2023-10-09T05:47:07;15.90;99.90
47022;DHT22;32779;52.264;6.154;2023-10-09T05:49:51;15.90;99.90
47022;DHT22;32779;52.264;6.154;2023-10-09T05:52:41;15.90;99.90
47022;DHT22;32779;52.264;6.154;2023-10-09T05:55:07;15.90;99.90
47022;DHT22;32779;52.264;6.154;2023-10-09T05:57:38;16.00;99.90
47022;DHT22;32779;52.264;6.154;2023-10-09T06:00:42;16.00;99.90
47022;DHT22;32779;52.264;6.154;2023-10-09T06:03:26;16.00;99.90
47022;DHT22;32779;52.264;6.154;2023-10-09T06:06:11;16.00;99.90
47022;DHT22;32779;52.264;6.154;2023-10-09T06:08:57;16.00;99.90
47022;DHT22;32779;52.264;6.154;2023-10-09T06:11:50;16.10;99.90
47022;DHT22;32779;52.264;6.154;2023-10-09T06:14:22;16.10;99.90
47022;DHT22;32779;52.264;6.154;2023-10-09T06:17:11;16.20;99.90
47022;DHT22;32779;52.264;6.154;2023-10-09T06:19:48;16.20;99.90
47022;DHT22;32779;52.264;6.154;2023-10-09T06:22:22;16.20;99.90
47022;DHT22;32779;52.264;6.154;2023-10-09T06:25:07;16.20;99.90
47022;DHT22;32779;52.264;6.154;2023-10-09T06:27:37;16.20;99.90
47022;DHT22;32779;52.264;6.154;2023-10-09T06:30:02;16.20;99.90
47022;DHT22;32779;52.264;6.154;2023-10-09T06:32:47;16.20;99.90
47022;DHT22;32779;52.264;6.154;2023-10-09T06:35:37;16.30;99.90
47022;DHT22;32779;52.264;6.154;2023-10-09T06:38:07;16.20;99.90
47022;DHT22;32779;52.264;6.154;2023-10-09T06:40:48;16.30;99.90
47022;DHT22;32779;52.264;6.154;2023-10-09T06:43:21;16.20;99.90
47022;DHT22;32779;52.264;6.154;2023-10-09T06:45:47;16.30;99.90
47022;DHT22;32779;52.264;6.154;2023-10-09T06:48:21;16.30;99.90
47022;DHT22;32779;52.264;6.154;2023-10-09T06:51:09;16.30;99.90
47022;DHT22;32779;52.264;6.154;2023-10-09T06:53:41;16.30;99.90
47022;DHT22;32779;52.264;6.154;2023-10-09T06:56:31;16.30;99.90
47022;DHT22;32779;52.264;6.154;2023-10-09T06:59:01;16.30;99.90
47022;DHT22;32779;52.264;6.154;2023-10-09T07:01:33;16.30;99.90
47022;DHT22;32779;52.264;6.154;2023-10-09T07:04:08;16.30;99.90
47022;DHT22;32779;52.264;6.154;2023-10-09T07:06:52;16.30;99.90
47022;DHT22;32779;52.264;6.154;2023-10-09T07:09:18;16.30;99.90
47022;DHT22;32779;52.264;6.154;2023-10-09T07:11:52;16.30;99.90
47022;DHT22;32779;52.264;6.154;2023-10-09T07:14:21;16.30;99.90
47022;DHT22;32779;52.264;6.154;2023-10-09T07:17:28;16.40;99.90
47022;DHT22;32779;52.264;6.154;2023-10-09T07:20:00;16.40;99.90
47022;DHT22;32779;52.264;6.154;2023-10-09T07:23:03;16.40;99.90
47022;DHT22;32779;52.264;6.154;2023-10-09T07:25:42;16.50;99.90
47022;DHT22;32779;52.264;6.154;2023-10-09T07:28:40;16.50;99.90
47022;DHT22;32779;52.264;6.154;2023-10-09T07:31:17;16.50;99.90
47022;DHT22;32779;52.264;6.154;2023-10-09T07:33:51;16.50;99.90
47022;DHT22;32779;52.264;6.154;2023-10-09T07:36:22;16.50;99.90
47022;DHT22;32779;52.264;6.154;2023-10-09T07:39:02;16.50;99.90
47022;DHT22;32779;52.264;6.154;2023-10-09T07:41:38;16.60;99.90
47022;DHT22;32779;52.264;6.154;2023-10-09T07:44:10;16.60;99.90
47022;DHT22;32779;52.264;6.154;2023-10-09T07:46:45;16.60;99.90
47022;DHT22;32779;52.264;6.154;2023-10-09T07:49:43;16.60;99.90
47022;DHT22;32779;52.264;6.154;2023-10-09T07:52:16;16.60;99.90
47022;DHT22;32779;52.264;6.154;2023-10-09T07:54:41;16.70;99.90
47022;DHT22;32779;52.264;6.154;2023-10-09T07:57:16;16.70;99.90
47022;DHT22;32779;52.264;6.154;2023-10-09T07:59:52;16.70;99.90
47022;DHT22;32779;52.264;6.154;2023-10-09T08:02:29;16.70;99.90
47022;DHT22;32779;52.264;6.154;2023-10-09T08:05:00;16.80;99.90
47022;DHT22;32779;52.264;6.154;2023-10-09T08:07:34;16.80;99.90
47022;DHT22;32779;52.264;6.154;2023-10-09T08:10:06;16.80;99.90
47022;DHT22;32779;52.264;6.154;2023-10-09T08:12:44;16.80;99.90
47022;DHT22;32779;52.264;6.154;2023-10-09T08:15:10;16.90;99.90
47022;DHT22;32779;52.264;6.154;2023-10-09T08:17:45;17.00;99.90
47022;DHT22;32779;52.264;6.154;2023-10-09T08:20:22;17.00;99.90
47022;DHT22;32779;52.264;6.154;2023-10-09T08:22:54;17.00;99.90
47022;DHT22;32779;52.264;6.154;2023-10-09T08:25:24;17.00;99.90
47022;DHT22;32779;52.264;6.154;2023-10-09T08:28:02;17.10;99.90
47022;DHT22;32779;52.264;6.154;2023-10-09T08:30:41;17.10;99.90
47022;DHT22;32779;52.264;6.154;2023-10-09T08:33:14;17.10;99.90
47022;DHT22;32779;52.264;6.154;2023-10-09T08:35:55;17.20;99.90
47022;DHT22;32779;52.264;6.154;2023-10-09T08:38:30;17.20;99.90
47022;DHT22;32779;52.264;6.154;2023-10-09T08:41:09;17.30;99.90
47022;DHT22;32779;52.264;6.154;2023-10-09T08:43:47;17.30;99.90
47022;DHT22;32779;52.264;6.154;2023-10-09T08:46:15;17.40;99.90
47022;DHT22;32779;52.264;6.154;2023-10-09T08:48:44;17.50;99.90
47022;DHT22;32779;52.264;6.154;2023-10-09T08:51:13;17.50;99.90
47022;DHT22;32779;52.264;6.154;2023-10-09T08:53:40;17.60;99.90
47022;DHT22;32779;52.264;6.154;2023-10-09T08:56:18;17.70;99.90
47022;DHT22;32779;52.264;6.154;2023-10-09T08:58:52;17.80;99.90
47022;DHT22;32779;52.264;6.154;2023-10-09T09:01:19;17.80;99.90
47022;DHT22;32779;52.264;6.154;2023-10-09T09:03:48;17.90;99.90
47022;DHT22;32779;52.264;6.154;2023-10-09T09:06:18;17.90;99.90
47022;DHT22;32779;52.264;6.154;2023-10-09T09:08:51;17.90;99.90
47022;DHT22;32779;52.264;6.154;2023-10-09T09:11:25;17.90;99.90
47022;DHT22;32779;52.264;6.154;2023-10-09T09:14:10;17.90;99.90
47022;DHT22;32779;52.264;6.154;2023-10-09T09:16:59;17.90;99.90
47022;DHT22;32779;52.264;6.154;2023-10-09T09:19:46;18.00;99.90
47022;DHT22;32779;52.264;6.154;2023-10-09T09:22:16;18.00;99.90
47022;DHT22;32779;52.264;6.154;2023-10-09T09:24:57;18.00;99.90
47022;DHT22;32779;52.264;6.154;2023-10-09T09:27:47;18.10;99.90
47022;DHT22;32779;52.264;6.154;2023-10-09T09:30:24;18.20;99.90
47022;DHT22;32779;52.264;6.154;2023-10-09T09:32:53;18.20;99.90
47022;DHT22;32779;52.264;6.154;2023-10-09T09:35:38;18.20;99.90
47022;DHT22;32779;52.264;6.154;2023-10-09T09:38:10;18.30;99.90
47022;DHT22;32779;52.264;6.154;2023-10-09T09:40:43;18.40;99.90
47022;DHT22;32779;52.264;6.154;2023-10-09T09:43:19;18.40;99.90
47022;DHT22;32779;52.264;6.154;2023-10-09T09:45:50;18.50;99.90
47022;DHT22;32779;52.264;6.154;2023-10-09T09:48:23;18.60;99.90
47022;DHT22;32779;52.264;6.154;2023-10-09T09:50:49;18.60;99.90
47022;DHT22;32779;52.264;6.154;2023-10-09T09:53:34;18.70;99.90
47022;DHT22;32779;52.264;6.154;2023-10-09T09:56:00;18.70;99.90
47022;DHT22;32779;52.264;6.154;2023-10-09T09:58:30;18.80;99.90
47022;DHT22;32779;52.264;6.154;2023-10-09T10:01:10;18.80;99.90
47022;DHT22;32779;52.264;6.154;2023-10-09T10:03:58;18.90;99.90
47022;DHT22;32779;52.264;6.154;2023-10-09T10:06:25;18.90;99.90
47022;DHT22;32779;52.264;6.154;2023-10-09T10:08:54;19.00;99.90
47022;DHT22;32779;52.264;6.154;2023-10-09T10:17:04;19.00;99.90
47022;DHT22;32779;52.264;6.154;2023-10-09T10:22:43;19.00;99.90
47022;DHT22;32779;52.264;6.154;2023-10-09T10:25:39;19.10;99.90
47022;DHT22;32779;52.264;6.154;2023-10-09T10:28:26;19.10;99.90
47022;DHT22;32779;52.264;6.154;2023-10-09T10:31:16;19.10;99.90
47022;DHT22;32779;52.264;6.154;2023-10-09T10:36:38;19.20;99.90
47022;DHT22;32779;52.264;6.154;2023-10-09T10:39:32;19.20;99.90
47022;DHT22;32779;52.264;6.154;2023-10-09T10:42:09;19.20;99.90
47022;DHT22;32779;52.264;6.154;2023-10-09T10:44:55;19.30;99.90
47022;DHT22;32779;52.264;6.154;2023-10-09T10:47:50;19.30;99.90
47022;DHT22;32779;52.264;6.154;2023-10-09T10:50:17;19.40;99.90
47022;DHT22;32779;52.264;6.154;2023-10-09T10:53:12;19.40;99.90
47022;DHT22;32779;52.264;6.154;2023-10-09T10:55:59;19.50;99.90
47022;DHT22;32779;52.264;6.154;2023-10-09T10:58:38;19.50;99.90
47022;DHT22;32779;52.264;6.154;2023-10-09T11:01:13;19.50;99.90
47022;DHT22;32779;52.264;6.154;2023-10-09T11:03:41;19.50;99.90
47022;DHT22;32779;52.264;6.154;2023-10-09T11:06:30;19.50;99.90
47022;DHT22;32779;52.264;6.154;2023-10-09T11:09:04;19.60;99.90
47022;DHT22;32779;52.264;6.154;2023-10-09T11:11:48;19.60;99.90
47022;DHT22;32779;52.264;6.154;2023-10-09T11:14:14;19.60;99.90
47022;DHT22;32779;52.264;6.154;2023-10-09T11:16:41;19.60;99.90
47022;DHT22;32779;52.264;6.154;2023-10-09T11:19:09;19.60;99.90
47022;DHT22;32779;52.264;6.154;2023-10-09T11:22:04;19.60;99.90
47022;DHT22;32779;52.264;6.154;2023-10-09T11:24:35;19.70;99.90
47022;DHT22;32779;52.264;6.154;2023-10-09T11:27:06;19.60;99.90
47022;DHT22;32779;52.264;6.154;2023-10-09T11:29:57;19.70;99.90
47022;DHT22;32779;52.264;6.154;2023-10-09T11:32:30;19.70;99.90
47022;DHT22;32779;52.264;6.154;2023-10-09T11:35:14;19.70;99.90
47022;DHT22;32779;52.264;6.154;2023-10-09T11:37:57;19.80;99.90
47022;DHT22;32779;52.264;6.154;2023-10-09T11:40:33;19.80;99.90
47022;DHT22;32779;52.264;6.154;2023-10-09T11:43:17;19.80;99.90
47022;DHT22;32779;52.264;6.154;2023-10-09T11:45:43;19.80;99.90
47022;DHT22;32779;52.264;6.154;2023-10-09T11:48:20;19.90;99.90
47022;DHT22;32779;52.264;6.154;2023-10-09T11:51:24;19.90;99.90
47022;DHT22;32779;52.264;6.154;2023-10-09T11:53:56;19.80;99.90
47022;DHT22;32779;52.264;6.154;2023-10-09T11:56:23;19.80;99.90
47022;DHT22;32779;52.264;6.154;2023-10-09T11:58:52;19.80;99.90
47022;DHT22;32779;52.264;6.154;2023-10-09T12:01:23;19.70;99.90
47022;DHT22;32779;52.264;6.154;2023-10-09T12:03:50;19.70;99.90
47022;DHT22;32779;52.264;6.154;2023-10-09T12:06:20;19.70;99.90
47022;DHT22;32779;52.264;6.154;2023-10-09T12:08:49;19.70;99.90
47022;DHT22;32779;52.264;6.154;2023-10-09T12:11:17;19.70;99.90
47022;DHT22;32779;52.264;6.154;2023-10-09T12:14:00;19.70;99.90
47022;DHT22;32779;52.264;6.154;2023-10-09T12:16:47;19.60;99.90
47022;DHT22;32779;52.264;6.154;2023-10-09T12:19:34;19.60;99.90
47022;DHT22;32779;52.264;6.154;2023-10-09T12:22:00;19.60;99.90
47022;DHT22;32779;52.264;6.154;2023-10-09T12:24:27;19.50;99.90
47022;DHT22;32779;52.264;6.154;2023-10-09T12:26:54;19.50;99.90
47022;DHT22;32779;52.264;6.154;2023-10-09T12:29:20;19.50;99.90
47022;DHT22;32779;52.264;6.154;2023-10-09T12:31:47;19.50;99.90
47022;DHT22;32779;52.264;6.154;2023-10-09T12:34:14;19.50;99.90
47022;DHT22;32779;52.264;6.154;2023-10-09T12:36:44;19.50;99.90
47022;DHT22;32779;52.264;6.154;2023-10-09T12:39:14;19.50;99.90
47022;DHT22;32779;52.264;6.154;2023-10-09T12:41:44;19.50;99.90
47022;DHT22;32779;52.264;6.154;2023-10-09T12:44:10;19.40;99.90
47022;DHT22;32779;52.264;6.154;2023-10-09T12:46:44;19.40;99.90
47022;DHT22;32779;52.264;6.154;2023-10-09T12:49:22;19.30;99.90
47022;DHT22;32779;52.264;6.154;2023-10-09T12:51:54;19.30;99.90
47022;DHT22;32779;52.264;6.154;2023-10-09T12:54:20;19.30;99.90
47022;DHT22;32779;52.264;6.154;2023-10-09T12:56:52;19.20;99.90
47022;DHT22;32779;52.264;6.154;2023-10-09T12:59:18;19.20;99.90
47022;DHT22;32779;52.264;6.154;2023-10-09T13:01:45;19.20;99.90
47022;DHT22;32779;52.264;6.154;2023-10-09T13:07:06;19.20;99.90
47022;DHT22;32779;52.264;6.154;2023-10-09T13:09:33;19.20;99.90
47022;DHT22;32779;52.264;6.154;2023-10-09T13:12:01;19.20;99.90
47022;DHT22;32779;52.264;6.154;2023-10-09T13:14:32;19.20;99.90
47022;DHT22;32779;52.264;6.154;2023-10-09T13:16:59;19.30;99.90
47022;DHT22;32779;52.264;6.154;2023-10-09T13:19:25;19.30;99.90
47022;DHT22;32779;52.264;6.154;2023-10-09T13:21:51;19.30;99.90
47022;DHT22;32779;52.264;6.154;2023-10-09T13:24:17;19.40;99.90
47022;DHT22;32779;52.264;6.154;2023-10-09T13:26:44;19.40;99.90
47022;DHT22;32779;52.264;6.154;2023-10-09T13:29:20;19.50;99.90
47022;DHT22;32779;52.264;6.154;2023-10-09T13:31:49;19.50;99.90
47022;DHT22;32779;52.264;6.154;2023-10-09T13:34:17;19.50;99.90
47022;DHT22;32779;52.264;6.154;2023-10-09T13:36:46;19.50;99.90
47022;DHT22;32779;52.264;6.154;2023-10-09T13:39:23;19.40;99.90
47022;DHT22;32779;52.264;6.154;2023-10-09T13:41:55;19.40;99.90
47022;DHT22;32779;52.264;6.154;2023-10-09T13:44:31;19.40;99.90
47022;DHT22;32779;52.264;6.154;2023-10-09T13:47:02;19.40;99.90
47022;DHT22;32779;52.264;6.154;2023-10-09T13:49:31;19.40;99.90
47022;DHT22;32779;52.264;6.154;2023-10-09T13:51:58;19.40;99.90
47022;DHT22;32779;52.264;6.154;2023-10-09T13:54:24;19.40;99.90
47022;DHT22;32779;52.264;6.154;2023-10-09T13:57:09;19.40;99.90
47022;DHT22;32779;52.264;6.154;2023-10-09T13:59:36;19.40;99.90
47022;DHT22;32779;52.264;6.154;2023-10-09T14:02:04;19.40;99.90
47022;DHT22;32779;52.264;6.154;2023-10-09T14:04:47;19.40;99.90
47022;DHT22;32779;52.264;6.154;2023-10-09T14:07:13;19.40;99.90
47022;DHT22;32779;52.264;6.154;2023-10-09T14:09:42;19.30;99.90
47022;DHT22;32779;52.264;6.154;2023-10-09T14:12:32;19.30;99.90
47022;DHT22;32779;52.264;6.154;2023-10-09T14:15:00;19.30;99.90
47022;DHT22;32779;52.264;6.154;2023-10-09T14:17:29;19.30;99.90
47022;DHT22;32779;52.264;6.154;2023-10-09T14:19:56;19.30;99.90
47022;DHT22;32779;52.264;6.154;2023-10-09T14:22:34;19.30;99.90
47022;DHT22;32779;52.264;6.154;2023-10-09T14:25:05;19.30;99.90
47022;DHT22;32779;52.264;6.154;2023-10-09T14:27:56;19.30;99.90
47022;DHT22;32779;52.264;6.154;2023-10-09T14:30:23;19.30;99.90
47022;DHT22;32779;52.264;6.154;2023-10-09T14:32:59;19.20;99.90
47022;DHT22;32779;52.264;6.154;2023-10-09T14:35:27;19.20;99.90
47022;DHT22;32779;52.264;6.154;2023-10-09T14:37:55;19.20;99.90
47022;DHT22;32779;52.264;6.154;2023-10-09T14:40:23;19.20;99.90
47022;DHT22;32779;52.264;6.154;2023-10-09T14:43:00;19.20;99.90
47022;DHT22;32779;52.264;6.154;2023-10-09T14:45:26;19.30;99.90
47022;DHT22;32779;52.264;6.154;2023-10-09T14:48:11;19.30;99.90
47022;DHT22;32779;52.264;6.154;2023-10-09T14:50:37;19.30;99.90
47022;DHT22;32779;52.264;6.154;2023-10-09T14:53:11;19.30;99.90
47022;DHT22;32779;52.264;6.154;2023-10-09T14:55:45;19.30;99.90
47022;DHT22;32779;52.264;6.154;2023-10-09T14:58:12;19.40;99.90
47022;DHT22;32779;52.264;6.154;2023-10-09T15:00:38;19.50;99.90
47022;DHT22;32779;52.264;6.154;2023-10-09T15:03:11;19.50;99.90
47022;DHT22;32779;52.264;6.154;2023-10-09T15:05:48;19.60;99.90
47022;DHT22;32779;52.264;6.154;2023-10-09T15:08:14;19.60;99.90
47022;DHT22;32779;52.264;6.154;2023-10-09T15:10:50;19.70;99.90
47022;DHT22;32779;52.264;6.154;2023-10-09T15:13:22;19.80;99.90
47022;DHT22;32779;52.264;6.154;2023-10-09T15:15:54;19.80;99.90
47022;DHT22;32779;52.264;6.154;2023-10-09T15:18:21;19.80;99.90
47022;DHT22;32779;52.264;6.154;2023-10-09T15:20:51;19.90;99.90
47022;DHT22;32779;52.264;6.154;2023-10-09T15:23:17;19.90;99.90
47022;DHT22;32779;52.264;6.154;2023-10-09T15:25:45;20.00;99.90
47022;DHT22;32779;52.264;6.154;2023-10-09T15:28:19;20.00;99.90
47022;DHT22;32779;52.264;6.154;2023-10-09T15:30:45;20.00;99.90
47022;DHT22;32779;52.264;6.154;2023-10-09T15:33:15;20.00;99.90
47022;DHT22;32779;52.264;6.154;2023-10-09T15:36:15;20.00;99.90
47022;DHT22;32779;52.264;6.154;2023-10-09T15:38:46;20.00;99.90
47022;DHT22;32779;52.264;6.154;2023-10-09T15:41:13;19.90;99.90
47022;DHT22;32779;52.264;6.154;2023-10-09T15:43:41;19.90;99.90
47022;DHT22;32779;52.264;6.154;2023-10-09T15:46:12;19.80;99.90
47022;DHT22;32779;52.264;6.154;2023-10-09T15:48:42;19.70;99.90
47022;DHT22;32779;52.264;6.154;2023-10-09T15:51:21;19.70;99.90
47022;DHT22;32779;52.264;6.154;2023-10-09T15:53:47;19.70;99.90
47022;DHT22;32779;52.264;6.154;2023-10-09T15:56:14;19.60;99.90
47022;DHT22;32779;52.264;6.154;2023-10-09T15:58:43;19.60;99.90
47022;DHT22;32779;52.264;6.154;2023-10-09T16:01:10;19.60;99.90
47022;DHT22;32779;52.264;6.154;2023-10-09T16:04:03;19.50;99.90
47022;DHT22;32779;52.264;6.154;2023-10-09T16:06:31;19.40;99.90
47022;DHT22;32779;52.264;6.154;2023-10-09T16:08:59;19.40;99.90
47022;DHT22;32779;52.264;6.154;2023-10-09T16:11:25;19.30;99.90
47022;DHT22;32779;52.264;6.154;2023-10-09T16:13:53;19.30;99.90
47022;DHT22;32779;52.264;6.154;2023-10-09T16:16:32;19.30;99.90
47022;DHT22;32779;52.264;6.154;2023-10-09T16:19:01;19.20;99.90
47022;DHT22;32779;52.264;6.154;2023-10-09T16:21:27;19.20;99.90
47022;DHT22;32779;52.264;6.154;2023-10-09T16:23:53;19.20;99.90
47022;DHT22;32779;52.264;6.154;2023-10-09T16:26:24;19.10;99.90
47022;DHT22;32779;52.264;6.154;2023-10-09T16:28:50;19.10;99.90
47022;DHT22;32779;52.264;6.154;2023-10-09T16:31:19;19.10;99.90
47022;DHT22;32779;52.264;6.154;2023-10-09T16:33:53;19.00;99.90